sensor_id;sensor_type;location;lat;lon;timestamp;P1;durP1;ratioP1;P2;durP2;ratioP2
42194;SDS011;27863;49.440;11.102;2023-05-07T00:00:50;3.63;;;3.17;;
42194;SDS011;27863;49.440;11.102;2023-05-07T00:03:51;3.70;;;3.40;;
42194;SDS011;27863;49.440;11.102;2023-05-07T00:06:51;3.43;;;3.03;;
42194;SDS011;27863;49.440;11.102;2023-05-07T00:09:52;3.10;;;2.90;;
42194;SDS011;27863;49.440;11.102;2023-05-07T00:12:52;6.47;;;5.87;;
42194;SDS011;27863;49.440;11.102;2023-05-07T00:15:53;5.57;;;4.83;;
42194;SDS011;27863;49.440;11.102;2023-05-07T00:18:53;4.43;;;2.93;;
42194;SDS011;27863;49.440;11.102;2023-05-07T00:21:54;3.20;;;3.00;;
42194;SDS011;27863;49.440;11.102;2023-05-07T00:24:56;2.30;;;2.10;;
42194;SDS011;27863;49.440;11.102;2023-05-07T00:27:56;3.65;;;3.35;;
42194;SDS011;27863;49.440;11.102;2023-05-07T00:31:02;3.10;;;2.77;;
42194;SDS011;27863;49.440;11.102;2023-05-07T00:34:03;3.47;;;3.00;;
42194;SDS011;27863;49.440;11.102;2023-05-07T00:37:03;3.25;;;2.53;;
42194;SDS011;27863;49.440;11.102;2023-05-07T00:40:04;3.30;;;3.00;;
42194;SDS011;27863;49.440;11.102;2023-05-07T00:43:07;2.50;;;2.30;;
42194;SDS011;27863;49.440;11.102;2023-05-07T00:46:08;2.67;;;2.45;;
42194;SDS011;27863;49.440;11.102;2023-05-07T00:49:10;2.30;;;2.10;;
42194;SDS011;27863;49.440;11.102;2023-05-07T00:52:13;2.33;;;2.13;;
42194;SDS011;27863;49.440;11.102;2023-05-07T00:55:15;2.63;;;2.43;;
42194;SDS011;27863;49.440;11.102;2023-05-07T00:58:16;2.70;;;2.50;;
42194;SDS011;27863;49.440;11.102;2023-05-07T01:01:16;3.10;;;2.00;;
42194;SDS011;27863;49.440;11.102;2023-05-07T01:04:17;8.50;;;2.37;;
42194;SDS011;27863;49.440;11.102;2023-05-07T01:07:17;2.37;;;2.17;;
42194;SDS011;27863;49.440;11.102;2023-05-07T01:10:18;2.60;;;2.40;;
42194;SDS011;27863;49.440;11.102;2023-05-07T01:13:19;1.83;;;1.73;;
42194;SDS011;27863;49.440;11.102;2023-05-07T01:16:20;2.13;;;1.80;;
42194;SDS011;27863;49.440;11.102;2023-05-07T01:19:22;2.07;;;1.87;;
42194;SDS011;27863;49.440;11.102;2023-05-07T01:22:27;2.20;;;2.00;;
42194;SDS011;27863;49.440;11.102;2023-05-07T01:25:31;2.33;;;2.13;;
42194;SDS011;27863;49.440;11.102;2023-05-07T01:28:35;2.47;;;2.27;;
42194;SDS011;27863;49.440;11.102;2023-05-07T01:31:36;1.90;;;1.80;;
42194;SDS011;27863;49.440;11.102;2023-05-07T01:34:37;2.33;;;2.13;;
42194;SDS011;27863;49.440;11.102;2023-05-07T01:37:39;2.35;;;2.15;;
42194;SDS011;27863;49.440;11.102;2023-05-07T01:40:40;2.33;;;2.13;;
42194;SDS011;27863;49.440;11.102;2023-05-07T01:43:41;2.83;;;2.08;;
42194;SDS011;27863;49.440;11.102;2023-05-07T01:46:42;3.03;;;2.42;;
42194;SDS011;27863;49.440;11.102;2023-05-07T01:49:43;2.47;;;2.00;;
42194;SDS011;27863;49.440;11.102;2023-05-07T01:52:44;2.60;;;2.35;;
42194;SDS011;27863;49.440;11.102;2023-05-07T01:55:44;2.80;;;2.40;;
42194;SDS011;27863;49.440;11.102;2023-05-07T01:58:45;2.05;;;1.60;;
42194;SDS011;27863;49.440;11.102;2023-05-07T02:01:49;1.88;;;1.77;;
42194;SDS011;27863;49.440;11.102;2023-05-07T02:04:49;4.53;;;4.13;;
42194;SDS011;27863;49.440;11.102;2023-05-07T02:07:51;2.85;;;2.65;;
42194;SDS011;27863;49.440;11.102;2023-05-07T02:10:52;2.47;;;1.90;;
42194;SDS011;27863;49.440;11.102;2023-05-07T02:13:53;3.72;;;2.83;;
42194;SDS011;27863;49.440;11.102;2023-05-07T02:16:54;2.17;;;1.97;;
42194;SDS011;27863;49.440;11.102;2023-05-07T02:19:55;2.17;;;2.03;;
42194;SDS011;27863;49.440;11.102;2023-05-07T02:22:55;2.50;;;2.30;;
42194;SDS011;27863;49.440;11.102;2023-05-07T02:25:56;4.63;;;3.83;;
42194;SDS011;27863;49.440;11.102;2023-05-07T02:28:57;2.30;;;2.10;;
42194;SDS011;27863;49.440;11.102;2023-05-07T02:31:58;2.50;;;2.30;;
42194;SDS011;27863;49.440;11.102;2023-05-07T02:34:59;5.40;;;2.20;;
42194;SDS011;27863;49.440;11.102;2023-05-07T02:38:00;3.50;;;2.43;;
42194;SDS011;27863;49.440;11.102;2023-05-07T02:41:01;2.37;;;2.17;;
42194;SDS011;27863;49.440;11.102;2023-05-07T02:44:01;2.93;;;2.53;;
42194;SDS011;27863;49.440;11.102;2023-05-07T02:47:02;2.70;;;2.47;;
42194;SDS011;27863;49.440;11.102;2023-05-07T02:50:03;2.90;;;2.70;;
42194;SDS011;27863;49.440;11.102;2023-05-07T02:53:06;2.93;;;2.73;;
42194;SDS011;27863;49.440;11.102;2023-05-07T02:56:07;4.37;;;2.83;;
42194;SDS011;27863;49.440;11.102;2023-05-07T02:59:07;3.50;;;3.10;;
42194;SDS011;27863;49.440;11.102;2023-05-07T03:02:12;3.00;;;2.80;;
42194;SDS011;27863;49.440;11.102;2023-05-07T03:05:13;3.57;;;3.30;;
42194;SDS011;27863;49.440;11.102;2023-05-07T03:08:14;3.10;;;2.83;;
42194;SDS011;27863;49.440;11.102;2023-05-07T03:11:15;3.43;;;3.20;;
42194;SDS011;27863;49.440;11.102;2023-05-07T03:14:16;4.67;;;3.30;;
42194;SDS011;27863;49.440;11.102;2023-05-07T03:17:16;3.20;;;3.00;;
42194;SDS011;27863;49.440;11.102;2023-05-07T03:20:17;3.93;;;3.53;;
42194;SDS011;27863;49.440;11.102;2023-05-07T03:23:17;3.60;;;3.30;;
42194;SDS011;27863;49.440;11.102;2023-05-07T03:26:17;3.57;;;3.27;;
42194;SDS011;27863;49.440;11.102;2023-05-07T03:29:19;3.13;;;2.90;;
42194;SDS011;27863;49.440;11.102;2023-05-07T03:32:20;9.87;;;3.93;;
42194;SDS011;27863;49.440;11.102;2023-05-07T03:35:21;3.17;;;2.97;;
42194;SDS011;27863;49.440;11.102;2023-05-07T03:38:22;4.40;;;4.00;;
42194;SDS011;27863;49.440;11.102;2023-05-07T03:41:23;3.87;;;3.30;;
42194;SDS011;27863;49.440;11.102;2023-05-07T03:44:23;4.20;;;3.90;;
42194;SDS011;27863;49.440;11.102;2023-05-07T03:47:25;4.03;;;3.63;;
42194;SDS011;27863;49.440;11.102;2023-05-07T03:50:26;4.43;;;4.03;;
42194;SDS011;27863;49.440;11.102;2023-05-07T03:53:27;3.33;;;3.03;;
42194;SDS011;27863;49.440;11.102;2023-05-07T03:56:28;3.53;;;3.10;;
42194;SDS011;27863;49.440;11.102;2023-05-07T03:59:30;3.97;;;3.67;;
42194;SDS011;27863;49.440;11.102;2023-05-07T04:02:32;3.53;;;3.23;;
42194;SDS011;27863;49.440;11.102;2023-05-07T04:05:33;3.63;;;3.33;;
42194;SDS011;27863;49.440;11.102;2023-05-07T04:08:36;3.43;;;3.23;;
42194;SDS011;27863;49.440;11.102;2023-05-07T04:11:39;3.73;;;3.43;;
42194;SDS011;27863;49.440;11.102;2023-05-07T04:14:43;4.57;;;4.17;;
42194;SDS011;27863;49.440;11.102;2023-05-07T04:17:45;5.83;;;3.50;;
42194;SDS011;27863;49.440;11.102;2023-05-07T04:20:47;4.07;;;3.70;;
42194;SDS011;27863;49.440;11.102;2023-05-07T04:23:51;3.80;;;3.60;;
42194;SDS011;27863;49.440;11.102;2023-05-07T04:26:52;4.70;;;4.37;;
42194;SDS011;27863;49.440;11.102;2023-05-07T04:29:54;4.67;;;4.27;;
42194;SDS011;27863;49.440;11.102;2023-05-07T04:32:56;3.93;;;3.63;;
42194;SDS011;27863;49.440;11.102;2023-05-07T04:35:58;5.77;;;3.33;;
42194;SDS011;27863;49.440;11.102;2023-05-07T04:39:03;4.67;;;4.37;;
42194;SDS011;27863;49.440;11.102;2023-05-07T04:42:04;4.53;;;4.13;;
42194;SDS011;27863;49.440;11.102;2023-05-07T04:45:08;4.40;;;4.00;;
42194;SDS011;27863;49.440;11.102;2023-05-07T04:48:11;4.20;;;3.90;;
42194;SDS011;27863;49.440;11.102;2023-05-07T04:51:14;4.43;;;4.10;;
42194;SDS011;27863;49.440;11.102;2023-05-07T04:54:15;5.13;;;4.72;;
42194;SDS011;27863;49.440;11.102;2023-05-07T04:57:16;6.13;;;5.15;;
42194;SDS011;27863;49.440;11.102;2023-05-07T05:00:17;5.55;;;4.65;;
42194;SDS011;27863;49.440;11.102;2023-05-07T05:03:21;5.72;;;5.22;;
42194;SDS011;27863;49.440;11.102;2023-05-07T05:06:21;5.70;;;5.30;;
42194;SDS011;27863;49.440;11.102;2023-05-07T05:09:23;5.72;;;5.22;;
42194;SDS011;27863;49.440;11.102;2023-05-07T05:12:24;5.77;;;5.37;;
42194;SDS011;27863;49.440;11.102;2023-05-07T05:15:26;5.68;;;5.28;;
42194;SDS011;27863;49.440;11.102;2023-05-07T05:18:27;6.33;;;5.83;;
42194;SDS011;27863;49.440;11.102;2023-05-07T05:21:28;5.63;;;5.23;;
42194;SDS011;27863;49.440;11.102;2023-05-07T05:24:36;5.35;;;4.95;;
42194;SDS011;27863;49.440;11.102;2023-05-07T05:27:37;5.78;;;5.28;;
42194;SDS011;27863;49.440;11.102;2023-05-07T05:30:39;6.18;;;5.75;;
42194;SDS011;27863;49.440;11.102;2023-05-07T05:33:41;6.15;;;5.75;;
42194;SDS011;27863;49.440;11.102;2023-05-07T05:36:41;5.53;;;5.10;;
42194;SDS011;27863;49.440;11.102;2023-05-07T05:39:42;6.70;;;6.30;;
42194;SDS011;27863;49.440;11.102;2023-05-07T05:42:44;6.07;;;5.57;;
42194;SDS011;27863;49.440;11.102;2023-05-07T05:45:45;6.05;;;5.55;;
42194;SDS011;27863;49.440;11.102;2023-05-07T05:48:46;6.80;;;6.30;;
42194;SDS011;27863;49.440;11.102;2023-05-07T05:51:47;6.47;;;5.88;;
42194;SDS011;27863;49.440;11.102;2023-05-07T05:54:48;5.57;;;5.18;;
42194;SDS011;27863;49.440;11.102;2023-05-07T05:57:49;6.07;;;5.47;;
42194;SDS011;27863;49.440;11.102;2023-05-07T06:00:50;6.38;;;5.78;;
42194;SDS011;27863;49.440;11.102;2023-05-07T06:03:53;6.05;;;5.45;;
42194;SDS011;27863;49.440;11.102;2023-05-07T06:06:54;6.45;;;5.85;;
42194;SDS011;27863;49.440;11.102;2023-05-07T06:09:58;7.00;;;6.43;;
42194;SDS011;27863;49.440;11.102;2023-05-07T06:12:59;6.53;;;6.03;;
42194;SDS011;27863;49.440;11.102;2023-05-07T06:16:00;6.65;;;6.15;;
42194;SDS011;27863;49.440;11.102;2023-05-07T06:19:01;5.80;;;5.40;;
42194;SDS011;27863;49.440;11.102;2023-05-07T06:22:02;6.43;;;5.93;;
42194;SDS011;27863;49.440;11.102;2023-05-07T06:25:04;5.97;;;5.47;;
42194;SDS011;27863;49.440;11.102;2023-05-07T06:28:05;7.10;;;6.40;;
42194;SDS011;27863;49.440;11.102;2023-05-07T06:31:12;6.07;;;5.57;;
42194;SDS011;27863;49.440;11.102;2023-05-07T06:34:20;6.88;;;6.30;;
42194;SDS011;27863;49.440;11.102;2023-05-07T06:37:21;5.85;;;5.43;;
42194;SDS011;27863;49.440;11.102;2023-05-07T06:40:35;6.65;;;6.15;;
42194;SDS011;27863;49.440;11.102;2023-05-07T06:43:36;6.13;;;5.63;;
42194;SDS011;27863;49.440;11.102;2023-05-07T06:47:05;6.05;;;5.55;;
42194;SDS011;27863;49.440;11.102;2023-05-07T06:50:06;5.22;;;4.82;;
42194;SDS011;27863;49.440;11.102;2023-05-07T06:53:08;6.22;;;5.72;;
42194;SDS011;27863;49.440;11.102;2023-05-07T06:56:09;5.68;;;5.25;;
42194;SDS011;27863;49.440;11.102;2023-05-07T06:59:10;5.03;;;4.63;;
42194;SDS011;27863;49.440;11.102;2023-05-07T07:02:13;5.35;;;4.95;;
42194;SDS011;27863;49.440;11.102;2023-05-07T07:05:14;4.40;;;4.03;;
42194;SDS011;27863;49.440;11.102;2023-05-07T07:08:14;5.50;;;5.00;;
42194;SDS011;27863;49.440;11.102;2023-05-07T07:11:17;5.63;;;5.07;;
42194;SDS011;27863;49.440;11.102;2023-05-07T07:14:17;4.90;;;4.60;;
42194;SDS011;27863;49.440;11.102;2023-05-07T07:17:22;4.80;;;4.43;;
42194;SDS011;27863;49.440;11.102;2023-05-07T07:20:23;4.75;;;4.35;;
42194;SDS011;27863;49.440;11.102;2023-05-07T07:23:24;5.63;;;5.13;;
42194;SDS011;27863;49.440;11.102;2023-05-07T07:26:25;4.95;;;4.55;;
42194;SDS011;27863;49.440;11.102;2023-05-07T07:29:26;5.22;;;4.72;;
42194;SDS011;27863;49.440;11.102;2023-05-07T07:32:28;8.15;;;4.72;;
42194;SDS011;27863;49.440;11.102;2023-05-07T07:35:29;5.00;;;4.70;;
42194;SDS011;27863;49.440;11.102;2023-05-07T07:38:30;4.70;;;4.38;;
42194;SDS011;27863;49.440;11.102;2023-05-07T07:41:31;4.60;;;4.30;;
42194;SDS011;27863;49.440;11.102;2023-05-07T07:44:31;4.18;;;3.88;;
42194;SDS011;27863;49.440;11.102;2023-05-07T07:47:37;4.97;;;4.57;;
42194;SDS011;27863;49.440;11.102;2023-05-07T07:50:38;4.78;;;4.38;;
42194;SDS011;27863;49.440;11.102;2023-05-07T07:53:41;6.15;;;4.45;;
42194;SDS011;27863;49.440;11.102;2023-05-07T07:56:41;4.55;;;4.15;;
42194;SDS011;27863;49.440;11.102;2023-05-07T07:59:46;4.40;;;4.05;;
42194;SDS011;27863;49.440;11.102;2023-05-07T08:02:49;4.72;;;4.32;;
42194;SDS011;27863;49.440;11.102;2023-05-07T08:05:56;5.50;;;4.63;;
42194;SDS011;27863;49.440;11.102;2023-05-07T08:08:58;4.82;;;4.40;;
42194;SDS011;27863;49.440;11.102;2023-05-07T08:11:59;4.50;;;4.03;;
42194;SDS011;27863;49.440;11.102;2023-05-07T08:15:00;4.60;;;4.20;;
42194;SDS011;27863;49.440;11.102;2023-05-07T08:18:01;5.07;;;4.65;;
42194;SDS011;27863;49.440;11.102;2023-05-07T08:21:02;4.38;;;3.97;;
42194;SDS011;27863;49.440;11.102;2023-05-07T08:24:04;4.00;;;3.70;;
42194;SDS011;27863;49.440;11.102;2023-05-07T08:27:05;4.55;;;4.20;;
42194;SDS011;27863;49.440;11.102;2023-05-07T08:30:06;4.15;;;3.80;;
42194;SDS011;27863;49.440;11.102;2023-05-07T08:33:08;3.97;;;3.67;;
42194;SDS011;27863;49.440;11.102;2023-05-07T08:36:09;4.03;;;3.72;;
42194;SDS011;27863;49.440;11.102;2023-05-07T08:39:10;4.38;;;4.07;;
42194;SDS011;27863;49.440;11.102;2023-05-07T08:42:11;3.88;;;3.58;;
42194;SDS011;27863;49.440;11.102;2023-05-07T08:45:13;4.10;;;3.28;;
42194;SDS011;27863;49.440;11.102;2023-05-07T08:48:17;3.08;;;2.88;;
42194;SDS011;27863;49.440;11.102;2023-05-07T08:51:24;2.95;;;2.75;;
42194;SDS011;27863;49.440;11.102;2023-05-07T08:54:25;6.03;;;2.63;;
42194;SDS011;27863;49.440;11.102;2023-05-07T08:57:26;3.28;;;3.05;;
42194;SDS011;27863;49.440;11.102;2023-05-07T09:00:28;2.22;;;2.13;;
42194;SDS011;27863;49.440;11.102;2023-05-07T09:03:30;7.90;;;2.70;;
42194;SDS011;27863;49.440;11.102;2023-05-07T09:06:33;2.95;;;2.75;;
42194;SDS011;27863;49.440;11.102;2023-05-07T09:09:34;2.88;;;2.67;;
42194;SDS011;27863;49.440;11.102;2023-05-07T09:12:36;2.92;;;2.72;;
42194;SDS011;27863;49.440;11.102;2023-05-07T09:15:39;2.70;;;2.50;;
42194;SDS011;27863;49.440;11.102;2023-05-07T09:18:42;3.67;;;2.60;;
42194;SDS011;27863;49.440;11.102;2023-05-07T09:21:45;2.65;;;2.45;;
42194;SDS011;27863;49.440;11.102;2023-05-07T09:24:47;6.68;;;2.78;;
42194;SDS011;27863;49.440;11.102;2023-05-07T09:27:49;2.65;;;2.45;;
42194;SDS011;27863;49.440;11.102;2023-05-07T09:30:50;2.15;;;2.05;;
42194;SDS011;27863;49.440;11.102;2023-05-07T09:33:52;2.42;;;2.22;;
42194;SDS011;27863;49.440;11.102;2023-05-07T09:36:53;2.67;;;2.47;;
42194;SDS011;27863;49.440;11.102;2023-05-07T09:39:54;2.78;;;2.58;;
42194;SDS011;27863;49.440;11.102;2023-05-07T09:43:07;2.45;;;2.33;;
42194;SDS011;27863;49.440;11.102;2023-05-07T09:46:14;4.55;;;4.15;;
42194;SDS011;27863;49.440;11.102;2023-05-07T09:49:22;3.95;;;3.65;;
42194;SDS011;27863;49.440;11.102;2023-05-07T09:52:32;3.67;;;3.40;;
42194;SDS011;27863;49.440;11.102;2023-05-07T09:55:37;3.10;;;2.60;;
42194;SDS011;27863;49.440;11.102;2023-05-07T09:58:40;3.00;;;2.80;;
42194;SDS011;27863;49.440;11.102;2023-05-07T10:01:42;3.00;;;2.80;;
42194;SDS011;27863;49.440;11.102;2023-05-07T10:04:44;3.97;;;3.67;;
42194;SDS011;27863;49.440;11.102;2023-05-07T10:07:46;3.88;;;3.58;;
42194;SDS011;27863;49.440;11.102;2023-05-07T10:10:49;4.82;;;4.53;;
42194;SDS011;27863;49.440;11.102;2023-05-07T10:13:54;4.82;;;3.97;;
42194;SDS011;27863;49.440;11.102;2023-05-07T10:16:55;4.90;;;4.57;;
42194;SDS011;27863;49.440;11.102;2023-05-07T10:19:56;3.90;;;3.60;;
42194;SDS011;27863;49.440;11.102;2023-05-07T10:22:57;2.85;;;2.65;;
42194;SDS011;27863;49.440;11.102;2023-05-07T10:26:06;2.90;;;2.70;;
42194;SDS011;27863;49.440;11.102;2023-05-07T10:29:12;2.95;;;2.75;;
42194;SDS011;27863;49.440;11.102;2023-05-07T10:35:39;3.47;;;3.17;;
42194;SDS011;27863;49.440;11.102;2023-05-07T10:38:42;2.20;;;2.10;;
42194;SDS011;27863;49.440;11.102;2023-05-07T10:41:44;2.58;;;2.47;;
42194;SDS011;27863;49.440;11.102;2023-05-07T10:44:44;2.42;;;2.28;;
42194;SDS011;27863;49.440;11.102;2023-05-07T10:51:22;2.63;;;2.08;;
42194;SDS011;27863;49.440;11.102;2023-05-07T10:54:29;3.53;;;3.22;;
42194;SDS011;27863;49.440;11.102;2023-05-07T10:57:38;3.72;;;3.40;;
42194;SDS011;27863;49.440;11.102;2023-05-07T11:00:45;3.38;;;3.08;;
42194;SDS011;27863;49.440;11.102;2023-05-07T11:04:12;5.93;;;5.43;;
42194;SDS011;27863;49.440;11.102;2023-05-07T11:10:51;3.13;;;2.92;;
42194;SDS011;27863;49.440;11.102;2023-05-07T11:13:59;3.22;;;2.97;;
42194;SDS011;27863;49.440;11.102;2023-05-07T11:17:17;2.97;;;2.78;;
42194;SDS011;27863;49.440;11.102;2023-05-07T11:20:44;2.88;;;2.67;;
42194;SDS011;27863;49.440;11.102;2023-05-07T11:24:15;2.92;;;2.72;;
42194;SDS011;27863;49.440;11.102;2023-05-07T11:27:26;3.97;;;3.58;;
42194;SDS011;27863;49.440;11.102;2023-05-07T11:30:29;3.40;;;3.15;;
42194;SDS011;27863;49.440;11.102;2023-05-07T11:33:32;3.50;;;3.20;;
42194;SDS011;27863;49.440;11.102;2023-05-07T11:36:41;3.45;;;3.25;;
42194;SDS011;27863;49.440;11.102;2023-05-07T11:39:50;2.53;;;2.33;;
42194;SDS011;27863;49.440;11.102;2023-05-07T11:43:10;2.58;;;2.08;;
42194;SDS011;27863;49.440;11.102;2023-05-07T11:46:12;2.80;;;2.60;;
42194;SDS011;27863;49.440;11.102;2023-05-07T11:49:14;2.70;;;2.50;;
42194;SDS011;27863;49.440;11.102;2023-05-07T11:52:16;2.38;;;2.17;;
42194;SDS011;27863;49.440;11.102;2023-05-07T11:55:18;3.13;;;2.50;;
42194;SDS011;27863;49.440;11.102;2023-05-07T11:58:22;2.63;;;2.42;;
42194;SDS011;27863;49.440;11.102;2023-05-07T12:01:24;2.47;;;2.28;;
42194;SDS011;27863;49.440;11.102;2023-05-07T12:04:24;3.20;;;2.33;;
42194;SDS011;27863;49.440;11.102;2023-05-07T12:07:25;12.02;;;10.35;;
42194;SDS011;27863;49.440;11.102;2023-05-07T12:10:25;2.80;;;2.60;;
42194;SDS011;27863;49.440;11.102;2023-05-07T12:13:26;2.75;;;2.55;;
42194;SDS011;27863;49.440;11.102;2023-05-07T12:16:27;3.17;;;2.97;;
42194;SDS011;27863;49.440;11.102;2023-05-07T12:19:29;2.35;;;2.15;;
42194;SDS011;27863;49.440;11.102;2023-05-07T12:22:30;4.05;;;2.60;;
42194;SDS011;27863;49.440;11.102;2023-05-07T12:25:31;2.65;;;2.33;;
42194;SDS011;27863;49.440;11.102;2023-05-07T12:28:37;2.60;;;2.15;;
42194;SDS011;27863;49.440;11.102;2023-05-07T12:31:41;2.10;;;2.00;;
42194;SDS011;27863;49.440;11.102;2023-05-07T12:34:44;2.25;;;2.05;;
42194;SDS011;27863;49.440;11.102;2023-05-07T12:37:45;2.38;;;2.17;;
42194;SDS011;27863;49.440;11.102;2023-05-07T12:40:54;1.90;;;1.80;;
42194;SDS011;27863;49.440;11.102;2023-05-07T12:43:56;3.17;;;2.78;;
42194;SDS011;27863;49.440;11.102;2023-05-07T12:46:57;3.58;;;2.83;;
42194;SDS011;27863;49.440;11.102;2023-05-07T12:49:58;4.30;;;3.22;;
42194;SDS011;27863;49.440;11.102;2023-05-07T12:52:59;2.85;;;2.65;;
42194;SDS011;27863;49.440;11.102;2023-05-07T12:56:00;3.17;;;2.92;;
42194;SDS011;27863;49.440;11.102;2023-05-07T12:59:00;2.92;;;2.70;;
42194;SDS011;27863;49.440;11.102;2023-05-07T13:02:01;2.20;;;2.10;;
42194;SDS011;27863;49.440;11.102;2023-05-07T13:05:02;2.88;;;2.67;;
42194;SDS011;27863;49.440;11.102;2023-05-07T13:08:02;2.42;;;2.22;;
42194;SDS011;27863;49.440;11.102;2023-05-07T13:11:03;2.47;;;2.28;;
42194;SDS011;27863;49.440;11.102;2023-05-07T13:14:04;2.25;;;2.15;;
42194;SDS011;27863;49.440;11.102;2023-05-07T13:17:05;2.65;;;2.45;;
42194;SDS011;27863;49.440;11.102;2023-05-07T13:20:06;2.47;;;2.28;;
42194;SDS011;27863;49.440;11.102;2023-05-07T13:23:08;2.92;;;2.60;;
42194;SDS011;27863;49.440;11.102;2023-05-07T13:26:08;3.22;;;3.03;;
42194;SDS011;27863;49.440;11.102;2023-05-07T13:29:10;2.85;;;2.65;;
42194;SDS011;27863;49.440;11.102;2023-05-07T13:32:10;2.55;;;2.22;;
42194;SDS011;27863;49.440;11.102;2023-05-07T13:35:11;2.40;;;2.20;;
42194;SDS011;27863;49.440;11.102;2023-05-07T13:38:11;1.95;;;1.85;;
42194;SDS011;27863;49.440;11.102;2023-05-07T13:41:12;2.53;;;2.30;;
42194;SDS011;27863;49.440;11.102;2023-05-07T13:44:14;2.88;;;2.20;;
42194;SDS011;27863;49.440;11.102;2023-05-07T13:47:14;2.25;;;2.15;;
42194;SDS011;27863;49.440;11.102;2023-05-07T13:50:15;3.15;;;2.90;;
42194;SDS011;27863;49.440;11.102;2023-05-07T13:53:16;3.05;;;2.85;;
42194;SDS011;27863;49.440;11.102;2023-05-07T13:56:18;2.65;;;2.47;;
42194;SDS011;27863;49.440;11.102;2023-05-07T13:59:18;2.83;;;2.63;;
42194;SDS011;27863;49.440;11.102;2023-05-07T14:02:19;3.08;;;2.63;;
42194;SDS011;27863;49.440;11.102;2023-05-07T14:05:20;3.00;;;2.67;;
42194;SDS011;27863;49.440;11.102;2023-05-07T14:08:21;2.45;;;2.33;;
42194;SDS011;27863;49.440;11.102;2023-05-07T14:11:21;3.58;;;3.20;;
42194;SDS011;27863;49.440;11.102;2023-05-07T14:14:22;2.97;;;2.42;;
42194;SDS011;27863;49.440;11.102;2023-05-07T14:17:22;2.72;;;2.50;;
42194;SDS011;27863;49.440;11.102;2023-05-07T14:20:25;2.78;;;2.58;;
42194;SDS011;27863;49.440;11.102;2023-05-07T14:23:27;3.03;;;2.78;;
42194;SDS011;27863;49.440;11.102;2023-05-07T14:26:27;4.20;;;3.15;;
42194;SDS011;27863;49.440;11.102;2023-05-07T14:29:28;2.90;;;2.70;;
42194;SDS011;27863;49.440;11.102;2023-05-07T14:32:29;2.80;;;2.60;;
42194;SDS011;27863;49.440;11.102;2023-05-07T14:35:29;2.63;;;2.42;;
42194;SDS011;27863;49.440;11.102;2023-05-07T14:38:30;3.05;;;2.85;;
42194;SDS011;27863;49.440;11.102;2023-05-07T14:41:32;3.47;;;3.17;;
42194;SDS011;27863;49.440;11.102;2023-05-07T14:44:34;3.10;;;2.53;;
42194;SDS011;27863;49.440;11.102;2023-05-07T14:47:35;3.63;;;3.33;;
42194;SDS011;27863;49.440;11.102;2023-05-07T14:50:36;3.90;;;3.13;;
42194;SDS011;27863;49.440;11.102;2023-05-07T14:53:36;3.45;;;3.15;;
42194;SDS011;27863;49.440;11.102;2023-05-07T14:56:37;3.72;;;3.42;;
42194;SDS011;27863;49.440;11.102;2023-05-07T14:59:37;3.08;;;2.88;;
42194;SDS011;27863;49.440;11.102;2023-05-07T15:02:38;3.75;;;2.90;;
42194;SDS011;27863;49.440;11.102;2023-05-07T15:05:39;3.10;;;2.90;;
42194;SDS011;27863;49.440;11.102;2023-05-07T15:08:39;3.28;;;2.95;;
42194;SDS011;27863;49.440;11.102;2023-05-07T15:11:40;3.17;;;2.92;;
42194;SDS011;27863;49.440;11.102;2023-05-07T15:14:41;3.95;;;3.65;;
42194;SDS011;27863;49.440;11.102;2023-05-07T15:17:42;3.20;;;3.00;;
42194;SDS011;27863;49.440;11.102;2023-05-07T15:20:42;3.72;;;3.42;;
42194;SDS011;27863;49.440;11.102;2023-05-07T15:23:43;3.88;;;3.63;;
42194;SDS011;27863;49.440;11.102;2023-05-07T15:26:44;3.47;;;3.28;;
42194;SDS011;27863;49.440;11.102;2023-05-07T15:29:45;3.55;;;3.25;;
42194;SDS011;27863;49.440;11.102;2023-05-07T15:32:46;3.97;;;3.67;;
42194;SDS011;27863;49.440;11.102;2023-05-07T15:35:47;5.53;;;3.53;;
42194;SDS011;27863;49.440;11.102;2023-05-07T15:38:48;3.80;;;3.50;;
42194;SDS011;27863;49.440;11.102;2023-05-07T15:41:49;4.03;;;3.63;;
42194;SDS011;27863;49.440;11.102;2023-05-07T15:44:50;4.30;;;3.90;;
42194;SDS011;27863;49.440;11.102;2023-05-07T15:47:52;3.65;;;3.45;;
42194;SDS011;27863;49.440;11.102;2023-05-07T15:50:53;3.58;;;3.30;;
42194;SDS011;27863;49.440;11.102;2023-05-07T15:53:56;3.78;;;3.40;;
42194;SDS011;27863;49.440;11.102;2023-05-07T15:56:57;4.45;;;3.53;;
42194;SDS011;27863;49.440;11.102;2023-05-07T15:59:58;4.50;;;4.10;;
42194;SDS011;27863;49.440;11.102;2023-05-07T16:02:59;3.83;;;3.55;;
42194;SDS011;27863;49.440;11.102;2023-05-07T16:06:00;4.20;;;3.90;;
42194;SDS011;27863;49.440;11.102;2023-05-07T16:09:00;3.80;;;3.30;;
42194;SDS011;27863;49.440;11.102;2023-05-07T16:12:01;3.80;;;3.50;;
42194;SDS011;27863;49.440;11.102;2023-05-07T16:15:01;3.22;;;2.90;;
42194;SDS011;27863;49.440;11.102;2023-05-07T16:18:03;3.38;;;3.17;;
42194;SDS011;27863;49.440;11.102;2023-05-07T16:21:05;4.03;;;3.72;;
42194;SDS011;27863;49.440;11.102;2023-05-07T16:24:05;3.45;;;3.25;;
42194;SDS011;27863;49.440;11.102;2023-05-07T16:27:07;3.78;;;3.42;;
42194;SDS011;27863;49.440;11.102;2023-05-07T16:30:07;4.13;;;3.72;;
42194;SDS011;27863;49.440;11.102;2023-05-07T16:33:08;3.45;;;3.22;;
42194;SDS011;27863;49.440;11.102;2023-05-07T16:36:10;3.58;;;3.28;;
42194;SDS011;27863;49.440;11.102;2023-05-07T16:39:11;3.75;;;3.47;;
42194;SDS011;27863;49.440;11.102;2023-05-07T16:42:11;3.67;;;3.38;;
42194;SDS011;27863;49.440;11.102;2023-05-07T16:45:13;3.53;;;3.20;;
42194;SDS011;27863;49.440;11.102;2023-05-07T16:48:13;3.58;;;3.38;;
42194;SDS011;27863;49.440;11.102;2023-05-07T16:51:14;4.10;;;3.80;;
42194;SDS011;27863;49.440;11.102;2023-05-07T16:54:14;4.05;;;3.75;;
42194;SDS011;27863;49.440;11.102;2023-05-07T16:57:15;3.45;;;3.15;;
42194;SDS011;27863;49.440;11.102;2023-05-07T17:00:15;3.45;;;3.25;;
42194;SDS011;27863;49.440;11.102;2023-05-07T17:03:17;3.40;;;3.10;;
42194;SDS011;27863;49.440;11.102;2023-05-07T17:06:17;3.28;;;3.08;;
42194;SDS011;27863;49.440;11.102;2023-05-07T17:09:19;3.03;;;2.78;;
42194;SDS011;27863;49.440;11.102;2023-05-07T17:12:20;4.10;;;3.35;;
42194;SDS011;27863;49.440;11.102;2023-05-07T17:15:21;3.63;;;2.92;;
42194;SDS011;27863;49.440;11.102;2023-05-07T17:18:22;3.53;;;3.22;;
42194;SDS011;27863;49.440;11.102;2023-05-07T17:21:22;2.50;;;2.30;;
42194;SDS011;27863;49.440;11.102;2023-05-07T17:24:23;2.80;;;2.60;;
42194;SDS011;27863;49.440;11.102;2023-05-07T17:27:24;4.03;;;2.72;;
42194;SDS011;27863;49.440;11.102;2023-05-07T17:30:25;3.15;;;2.85;;
42194;SDS011;27863;49.440;11.102;2023-05-07T17:33:25;2.70;;;2.50;;
42194;SDS011;27863;49.440;11.102;2023-05-07T17:36:26;4.28;;;2.72;;
42194;SDS011;27863;49.440;11.102;2023-05-07T17:39:27;3.03;;;2.83;;
42194;SDS011;27863;49.440;11.102;2023-05-07T17:42:28;2.75;;;2.55;;
42194;SDS011;27863;49.440;11.102;2023-05-07T17:45:28;2.85;;;2.65;;
42194;SDS011;27863;49.440;11.102;2023-05-07T17:48:31;2.95;;;2.75;;
42194;SDS011;27863;49.440;11.102;2023-05-07T17:51:32;2.70;;;2.50;;
42194;SDS011;27863;49.440;11.102;2023-05-07T17:54:33;3.10;;;2.55;;
42194;SDS011;27863;49.440;11.102;2023-05-07T17:57:33;3.15;;;2.88;;
42194;SDS011;27863;49.440;11.102;2023-05-07T18:00:37;2.22;;;2.13;;
42194;SDS011;27863;49.440;11.102;2023-05-07T18:03:37;2.95;;;2.72;;
42194;SDS011;27863;49.440;11.102;2023-05-07T18:06:38;2.65;;;2.45;;
42194;SDS011;27863;49.440;11.102;2023-05-07T18:09:40;3.70;;;3.40;;